Time;durP1;ratioP1;P1;durP2;ratioP2;P2;SDS_P1;SDS_P2;PMS_P1;PMS_P2;Temp;Humidity;BMP_temperature;BMP_pressure;BME280_temperature;BME280_humidity;BME280_pressure;Samples;Min_cycle;Max_cycle;Signal;HPM_P1;HPM_P2
2022/09/09 00:01:08;;;;;;;8.07;5.78;;;16.00;99.90;;;;;;5015245;28;20290;-70
2022/09/09 00:03:53;;;;;;;7.70;6.18;;;16.00;99.90;;;;;;5008923;28;20212;-71
2022/09/09 00:06:28;;;;;;;7.05;6.35;;;16.00;99.90;;;;;;5014985;28;20231;-70
2022/09/09 00:09:00;;;;;;;6.78;5.93;;;16.00;99.90;;;;;;5011895;28;20603;-70
2022/09/09 00:11:40;;;;;;;8.07;6.60;;;15.90;99.90;;;;;;5013127;28;20198;-69
2022/09/09 00:14:14;;;;;;;6.88;6.18;;;15.90;99.90;;;;;;5006051;28;20216;-69
2022/09/09 00:16:45;;;;;;;8.10;5.95;;;15.90;99.90;;;;;;5013494;28;20226;-70
2022/09/09 00:19:20;;;;;;;6.88;6.18;;;15.80;99.90;;;;;;5014321;28;20685;-69
2022/09/09 00:21:57;;;;;;;6.72;6.03;;;15.80;99.90;;;;;;5006650;28;20254;-71
2022/09/09 00:24:54;;;;;;;7.65;6.85;;;15.90;99.90;;;;;;5011519;28;20708;-69
2022/09/09 00:27:47;;;;;;;9.05;7.13;;;15.80;99.90;;;;;;5007340;28;20207;-70
2022/09/09 00:30:25;;;;;;;7.72;6.93;;;15.80;99.90;;;;;;5001780;28;20295;-70
2022/09/09 00:32:57;;;;;;;6.78;6.10;;;15.80;99.90;;;;;;5008379;28;20184;-70
2022/09/09 00:35:47;;;;;;;8.70;7.15;;;15.80;99.90;;;;;;5029130;28;20232;-70
2022/09/09 00:38:34;;;;;;;7.93;7.10;;;15.80;99.90;;;;;;5031585;28;20220;-71
2022/09/09 00:41:17;;;;;;;9.15;7.15;;;15.70;99.90;;;;;;5018936;28;20205;-71
2022/09/09 00:43:55;;;;;;;8.63;7.15;;;15.80;99.90;;;;;;5015211;28;20220;-71
2022/09/09 00:46:48;;;;;;;8.82;7.93;;;15.80;99.90;;;;;;5013395;28;20689;-70
2022/09/09 00:49:46;;;;;;;7.78;6.65;;;15.80;99.90;;;;;;5007818;28;20254;-70
2022/09/09 00:52:31;;;;;;;9.10;7.22;;;15.80;99.90;;;;;;5017674;28;20700;-70
2022/09/09 00:55:15;;;;;;;8.85;7.43;;;15.70;99.90;;;;;;5010900;28;20687;-71
2022/09/09 00:57:41;;;;;;;9.63;7.38;;;15.70;99.90;;;;;;5004373;28;20270;-71
2022/09/09 01:00:17;;;;;;;7.85;7.13;;;15.70;99.90;;;;;;5017174;28;20259;-71
2022/09/09 01:03:25;;;;;;;7.18;6.47;;;15.60;99.90;;;;;;5009339;28;20247;-70
2022/09/09 01:06:05;;;;;;;8.07;6.90;;;15.60;99.90;;;;;;5002082;28;20252;-70
2022/09/09 01:09:02;;;;;;;8.60;7.07;;;15.60;99.90;;;;;;5015213;28;20169;-71
2022/09/09 01:11:55;;;;;;;10.93;7.13;;;15.60;99.90;;;;;;5010215;28;20239;-69
2022/09/09 01:14:33;;;;;;;8.10;7.30;;;15.60;99.90;;;;;;5005416;28;20221;-71
2022/09/09 01:17:10;;;;;;;8.23;6.43;;;15.60;99.90;;;;;;5014931;28;20252;-71
2022/09/09 01:19:43;;;;;;;8.35;7.03;;;15.60;99.90;;;;;;5011540;28;20208;-71
2022/09/09 01:22:36;;;;;;;8.98;7.55;;;15.50;99.90;;;;;;5006708;28;20614;-71
2022/09/09 01:25:20;;;;;;;7.03;6.28;;;15.50;99.90;;;;;;5011166;28;20774;-70
2022/09/09 01:27:49;;;;;;;8.38;7.22;;;15.50;99.90;;;;;;5009647;28;20204;-71
2022/09/09 01:30:17;;;;;;;7.80;6.78;;;15.50;99.90;;;;;;5008166;28;20671;-71
2022/09/09 01:32:46;;;;;;;8.75;7.60;;;15.50;99.90;;;;;;5007704;28;20202;-70
2022/09/09 01:35:21;;;;;;;9.05;7.20;;;15.50;99.90;;;;;;5016584;28;20218;-70
2022/09/09 01:37:47;;;;;;;7.97;7.07;;;15.50;99.90;;;;;;5008160;28;20255;-70
2022/09/09 01:40:12;;;;;;;9.68;7.43;;;15.50;99.90;;;;;;5003432;28;20204;-71
2022/09/09 01:42:38;;;;;;;7.88;7.07;;;15.50;99.90;;;;;;5012999;28;20204;-70
2022/09/09 01:45:04;;;;;;;8.70;7.45;;;15.40;99.90;;;;;;5011959;28;20654;-70
2022/09/09 01:47:30;;;;;;;8.02;7.22;;;15.40;99.90;;;;;;5007569;28;20192;-70
2022/09/09 01:49:55;;;;;;;8.70;7.03;;;15.40;99.90;;;;;;5007924;28;20548;-70
2022/09/09 01:52:21;;;;;;;8.75;7.50;;;15.40;99.90;;;;;;5017852;28;20573;-70
2022/09/09 01:54:47;;;;;;;7.15;6.45;;;15.40;99.90;;;;;;5010736;28;20209;-70
2022/09/09 01:57:22;;;;;;;9.48;7.60;;;15.40;99.90;;;;;;5005126;28;20216;-71
2022/09/09 02:00:09;;;;;;;11.77;7.30;;;15.30;99.90;;;;;;5012196;28;20187;-70
2022/09/09 02:03:10;;;;;;;8.20;7.40;;;15.30;99.90;;;;;;5011392;28;20184;-70
2022/09/09 02:05:41;;;;;;;8.05;7.30;;;15.40;99.90;;;;;;5004691;28;20208;-70
2022/09/09 02:08:11;;;;;;;8.73;7.32;;;15.30;99.90;;;;;;5010077;28;20205;-70
2022/09/09 02:11:01;;;;;;;10.80;7.57;;;15.30;99.90;;;;;;5012055;28;20743;-71
2022/09/09 02:13:28;;;;;;;9.50;7.28;;;15.20;99.90;;;;;;5001133;28;20204;-71
2022/09/09 02:16:15;;;;;;;7.72;6.93;;;15.30;99.90;;;;;;5005390;28;20235;-70
2022/09/09 02:18:48;;;;;;;8.70;7.65;;;15.20;99.90;;;;;;5007697;28;20280;-71
2022/09/09 02:21:16;;;;;;;8.63;7.25;;;15.20;99.90;;;;;;5004338;28;20618;-70
2022/09/09 02:23:43;;;;;;;8.30;6.90;;;15.20;99.90;;;;;;5002215;28;20181;-71
2022/09/09 02:26:13;;;;;;;8.75;7.38;;;15.20;99.90;;;;;;5008021;28;20797;-69
2022/09/09 02:28:40;;;;;;;9.60;7.65;;;15.20;99.90;;;;;;5003973;28;20209;-70
2022/09/09 02:31:05;;;;;;;8.50;7.53;;;15.20;99.90;;;;;;5000401;28;20225;-71
2022/09/09 02:33:38;;;;;;;8.73;6.38;;;15.10;99.90;;;;;;5006025;28;20213;-71
2022/09/09 02:36:07;;;;;;;9.27;7.13;;;15.10;99.90;;;;;;5005740;28;20201;-71
2022/09/09 02:38:37;;;;;;;10.80;7.13;;;15.10;99.90;;;;;;5003981;28;20176;-70
2022/09/09 02:41:03;;;;;;;8.07;7.28;;;15.20;99.90;;;;;;5003780;28;20205;-70
2022/09/09 02:43:35;;;;;;;9.25;7.07;;;15.10;99.90;;;;;;5015032;28;20200;-71
2022/09/09 02:46:32;;;;;;;11.10;7.63;;;15.10;99.90;;;;;;5007385;28;20214;-71
2022/09/09 02:49:18;;;;;;;8.52;6.85;;;15.10;99.90;;;;;;5003798;28;20291;-70
2022/09/09 02:52:05;;;;;;;10.35;7.50;;;15.10;99.90;;;;;;5012074;28;20323;-71
2022/09/09 02:54:37;;;;;;;7.75;6.95;;;15.10;99.90;;;;;;5009000;28;20225;-71
2022/09/09 02:57:14;;;;;;;8.13;7.22;;;15.10;99.90;;;;;;5004652;28;20228;-71
2022/09/09 02:59:41;;;;;;;9.23;6.85;;;15.10;99.90;;;;;;5009050;28;20177;-69
2022/09/09 03:02:07;;;;;;;9.27;6.88;;;15.10;99.90;;;;;;5009210;28;20205;-70
2022/09/09 03:04:32;;;;;;;9.35;7.30;;;15.10;99.90;;;;;;5007574;28;20713;-69
2022/09/09 03:06:59;;;;;;;8.27;7.30;;;15.00;99.90;;;;;;5002988;28;20571;-70
2022/09/09 03:09:25;;;;;;;7.28;6.13;;;15.00;99.90;;;;;;5011186;28;20193;-71
2022/09/09 03:11:51;;;;;;;7.53;6.70;;;15.00;99.90;;;;;;5007055;28;20169;-70
2022/09/09 03:14:20;;;;;;;7.50;6.75;;;15.00;99.90;;;;;;5014635;28;20556;-71
2022/09/09 03:16:46;;;;;;;7.90;6.85;;;15.00;99.90;;;;;;5007148;28;20213;-70
2022/09/09 03:19:12;;;;;;;7.70;6.90;;;15.00;99.90;;;;;;5008900;28;20209;-70
2022/09/09 03:21:38;;;;;;;8.55;6.97;;;15.00;99.90;;;;;;5006482;28;20201;-69
2022/09/09 03:24:04;;;;;;;8.05;7.25;;;15.00;99.90;;;;;;5011281;28;20207;-70
2022/09/09 03:26:30;;;;;;;8.02;7.15;;;15.00;99.90;;;;;;5010219;28;20189;-70
2022/09/09 03:28:56;;;;;;;8.38;6.72;;;14.90;99.90;;;;;;5005111;28;20202;-70
2022/09/09 03:31:22;;;;;;;7.72;6.85;;;15.00;99.90;;;;;;5011320;28;20193;-70
2022/09/09 03:33:47;;;;;;;8.77;6.60;;;15.00;99.90;;;;;;5008297;28;20212;-70
2022/09/09 03:36:14;;;;;;;8.38;6.68;;;15.00;99.90;;;;;;5009286;28;20232;-70
2022/09/09 03:38:40;;;;;;;8.82;5.85;;;15.00;99.90;;;;;;5010139;28;20631;-70
2022/09/09 03:41:07;;;;;;;7.22;6.30;;;14.90;99.90;;;;;;5002317;28;20172;-69
2022/09/09 03:43:33;;;;;;;10.38;6.80;;;14.90;99.90;;;;;;5012619;28;20217;-70
2022/09/09 03:45:58;;;;;;;7.72;6.93;;;14.90;99.90;;;;;;5006029;28;20213;-70
2022/09/09 03:48:25;;;;;;;8.45;6.47;;;14.90;99.90;;;;;;5006394;28;20201;-69
2022/09/09 03:50:52;;;;;;;7.25;5.97;;;14.80;99.90;;;;;;5004197;28;20181;-70
2022/09/09 03:53:20;;;;;;;8.40;6.15;;;14.80;99.90;;;;;;5007017;28;20169;-70
2022/09/09 03:55:47;;;;;;;8.55;6.15;;;14.80;99.90;;;;;;5005451;28;20205;-70
2022/09/09 03:58:14;;;;;;;6.82;5.63;;;14.80;99.90;;;;;;5004246;28;20714;-71
2022/09/09 04:00:42;;;;;;;7.88;6.47;;;14.80;99.90;;;;;;5010658;28;20284;-70
2022/09/09 04:03:09;;;;;;;7.28;5.82;;;14.80;99.90;;;;;;5006352;28;20284;-71
2022/09/09 04:05:35;;;;;;;9.32;5.90;;;14.80;99.90;;;;;;5005204;28;20267;-70
2022/09/09 04:08:01;;;;;;;10.32;6.18;;;14.80;99.90;;;;;;5005035;28;20727;-69
2022/09/09 04:10:26;;;;;;;7.28;5.45;;;14.70;99.90;;;;;;5008830;28;20685;-69
2022/09/09 04:12:52;;;;;;;7.47;5.82;;;14.70;99.90;;;;;;5005097;28;20792;-69
2022/09/09 04:15:18;;;;;;;8.13;5.75;;;14.70;99.90;;;;;;5003995;28;20307;-69
2022/09/09 04:17:44;;;;;;;6.78;5.88;;;14.70;99.90;;;;;;5032498;23;20228;-74
2022/09/09 04:20:11;;;;;;;6.63;5.80;;;14.80;99.90;;;;;;5029305;28;20176;-74
2022/09/09 04:22:38;;;;;;;4.90;4.45;;;14.80;99.90;;;;;;5030189;28;20215;-74
2022/09/09 04:25:05;;;;;;;5.95;5.10;;;14.80;99.90;;;;;;5031657;28;20212;-73
2022/09/09 04:27:31;;;;;;;9.60;5.53;;;14.80;99.90;;;;;;5033396;28;20208;-73
2022/09/09 04:29:57;;;;;;;6.25;5.22;;;14.80;99.90;;;;;;5023455;28;20192;-73
2022/09/09 04:32:23;;;;;;;7.05;5.32;;;14.70;99.90;;;;;;5033341;28;20179;-74
2022/09/09 04:34:48;;;;;;;8.30;5.57;;;14.80;99.90;;;;;;5034847;28;20220;-73
2022/09/09 04:37:14;;;;;;;5.22;4.68;;;14.80;99.90;;;;;;5036291;28;20598;-74
2022/09/09 04:39:40;;;;;;;5.97;5.38;;;14.80;99.90;;;;;;5026691;28;20208;-73
2022/09/09 04:42:05;;;;;;;5.13;4.65;;;14.90;99.90;;;;;;5044242;28;20722;-74
2022/09/09 04:44:31;;;;;;;8.90;6.00;;;14.90;99.90;;;;;;5041206;28;20164;-74
2022/09/09 04:46:57;;;;;;;5.40;4.90;;;15.00;99.90;;;;;;5025235;28;20224;-76
2022/09/09 04:49:23;;;;;;;6.40;5.15;;;15.00;99.90;;;;;;5024196;28;20204;-78
2022/09/09 04:51:49;;;;;;;7.85;5.45;;;15.10;99.90;;;;;;5032743;28;20220;-71
2022/09/09 04:54:14;;;;;;;6.95;4.93;;;15.20;99.90;;;;;;5035717;28;20755;-73
2022/09/09 04:56:42;;;;;;;9.02;4.60;;;15.20;99.90;;;;;;5025134;28;20189;-73
2022/09/09 04:59:07;;;;;;;7.32;5.45;;;15.40;99.90;;;;;;5031551;28;20201;-75
2022/09/09 05:01:33;;;;;;;4.97;4.57;;;15.50;99.90;;;;;;5039685;28;20685;-73
2022/09/09 05:03:59;;;;;;;5.43;4.93;;;15.70;99.90;;;;;;5028054;28;20219;-73
2022/09/09 05:06:25;;;;;;;5.50;4.03;;;15.70;99.90;;;;;;5019739;28;20586;-73
2022/09/09 05:08:50;;;;;;;4.43;4.03;;;15.70;99.90;;;;;;5032425;28;20199;-73
2022/09/09 05:11:17;;;;;;;5.43;4.05;;;15.80;99.90;;;;;;5035627;28;20174;-73
2022/09/09 05:13:43;;;;;;;8.90;4.15;;;15.90;99.90;;;;;;5029370;28;20227;-75
2022/09/09 05:16:11;;;;;;;8.93;7.10;;;15.90;99.90;;;;;;5031801;28;20216;-74
2022/09/09 05:18:37;;;;;;;7.60;6.38;;;15.80;99.90;;;;;;5031869;28;20215;-73
2022/09/09 05:21:03;;;;;;;4.47;3.50;;;16.10;99.90;;;;;;5028149;28;20205;-75
2022/09/09 05:23:28;;;;;;;4.68;3.58;;;16.40;99.90;;;;;;5031255;28;20171;-74
2022/09/09 05:25:58;;;;;;;4.60;3.08;;;17.10;99.90;;;;;;5033450;28;20271;-72
2022/09/09 05:28:25;;;;;;;3.45;2.63;;;18.50;99.90;;;;;;5032932;28;20304;-76
2022/09/09 05:31:07;;;;;;;3.70;2.85;;;19.20;99.90;;;;;;5027016;28;20212;-74
2022/09/09 05:33:34;;;;;;;2.92;2.60;;;20.40;99.90;;;;;;5034475;28;20701;-74
2022/09/09 05:36:06;;;;;;;4.03;2.65;;;22.40;99.90;;;;;;5034067;28;20213;-74
2022/09/09 05:38:32;;;;;;;3.60;2.70;;;22.60;99.90;;;;;;5036520;28;20192;-74
2022/09/09 05:40:58;;;;;;;2.92;2.53;;;22.50;99.90;;;;;;5027722;28;20212;-74
2022/09/09 05:43:25;;;;;;;3.75;2.53;;;23.00;99.90;;;;;;5037339;28;20588;-74
2022/09/09 05:46:10;;;;;;;5.75;2.65;;;23.80;99.90;;;;;;5036691;28;20371;-74
2022/09/09 05:48:38;;;;;;;4.35;2.75;;;22.10;99.90;;;;;;5023382;28;20235;-75
2022/09/09 05:51:09;;;;;;;4.32;2.38;;;23.10;99.90;;;;;;5026821;28;20512;-74
2022/09/09 05:53:35;;;;;;;5.28;2.80;;;24.70;99.90;;;;;;5033702;28;20231;-73
2022/09/09 05:56:16;;;;;;;5.30;2.40;;;25.40;99.90;;;;;;5024790;28;20236;-73
2022/09/09 05:58:46;;;;;;;4.00;1.92;;;26.40;99.90;;;;;;5030549;28;20231;-73
2022/09/09 06:01:15;;;;;;;3.20;2.20;;;27.70;99.90;;;;;;5030731;28;20226;-75
2022/09/09 06:03:43;;;;;;;3.92;2.20;;;27.90;99.90;;;;;;5031107;28;20585;-74
2022/09/09 06:06:11;;;;;;;6.45;2.72;;;27.50;99.90;;;;;;5032777;28;20205;-73
2022/09/09 06:08:39;;;;;;;5.95;3.45;;;27.30;99.90;;;;;;5029118;28;20277;-73
2022/09/09 06:11:11;;;;;;;5.43;2.40;;;28.00;99.90;;;;;;5027627;28;20213;-73
2022/09/09 06:13:38;;;;;;;4.05;2.30;;;25.70;99.90;;;;;;5030633;28;20212;-74
2022/09/09 06:16:07;;;;;;;2.78;1.98;;;25.50;99.90;;;;;;5033985;28;20567;-72
2022/09/09 06:18:32;;;;;;;4.10;2.63;;;25.70;99.90;;;;;;5037009;28;20216;-73
2022/09/09 06:21:00;;;;;;;5.50;3.10;;;26.00;99.90;;;;;;5034001;28;20251;-74
2022/09/09 06:23:27;;;;;;;3.67;2.50;;;26.90;99.90;;;;;;5027411;28;20168;-73
2022/09/09 06:26:05;;;;;;;2.80;2.15;;;27.80;99.90;;;;;;5040563;28;20291;-72
2022/09/09 06:28:34;;;;;;;2.92;2.10;;;28.30;99.90;;;;;;5036221;28;20216;-74
2022/09/09 06:31:02;;;;;;;5.00;2.45;;;28.50;99.90;;;;;;5030271;28;20219;-73
2022/09/09 06:33:31;;;;;;;7.97;2.40;;;29.00;99.90;;;;;;5039156;28;20220;-76
2022/09/09 06:35:57;;;;;;;2.80;2.10;;;28.40;99.90;;;;;;5043363;28;20227;-73
2022/09/09 06:38:23;;;;;;;4.55;2.55;;;28.00;99.90;;;;;;5034061;28;20235;-74
2022/09/09 06:40:58;;;;;;;3.63;2.40;;;26.60;99.90;;;;;;5032523;28;20209;-72
2022/09/09 06:43:27;;;;;;;6.22;3.13;;;24.90;99.90;;;;;;5038327;28;20220;-73
2022/09/09 06:45:57;;;;;;;4.28;2.55;;;23.60;99.90;;;;;;5038173;28;20270;-73
2022/09/09 06:48:25;;;;;;;4.63;2.40;;;22.50;99.90;;;;;;5035434;28;20710;-73
2022/09/09 06:50:59;;;;;;;4.72;2.60;;;21.30;99.90;;;;;;5032996;28;20741;-73
2022/09/09 06:53:25;;;;;;;4.55;2.35;;;21.30;99.90;;;;;;5033285;28;20195;-72
2022/09/09 06:55:51;;;;;;;2.75;2.47;;;21.70;99.90;;;;;;5034301;28;20219;-73
2022/09/09 06:58:17;;;;;;;4.05;2.50;;;22.80;99.90;;;;;;5038098;28;20208;-73
2022/09/09 07:00:42;;;;;;;4.45;1.98;;;24.20;99.90;;;;;;5033900;28;20277;-73
2022/09/09 07:03:10;;;;;;;6.90;2.38;;;25.70;99.90;;;;;;5033398;28;20204;-73
2022/09/09 07:05:35;;;;;;;5.13;2.30;;;26.90;99.90;;;;;;5038148;28;20208;-74
2022/09/09 07:08:02;;;;;;;5.95;2.20;;;27.60;99.90;;;;;;5035880;28;20218;-74
2022/09/09 07:10:27;;;;;;;4.32;2.08;;;28.50;99.90;;;;;;5042559;28;20218;-73
2022/09/09 07:12:54;;;;;;;3.72;1.75;;;29.60;99.90;;;;;;5036692;28;20224;-73
2022/09/09 07:15:21;;;;;;;2.85;1.60;;;29.70;99.90;;;;;;5031180;28;20788;-73
2022/09/09 07:17:47;;;;;;;5.20;2.10;;;29.20;99.90;;;;;;5038138;28;20647;-73
2022/09/09 07:20:14;;;;;;;4.43;2.05;;;29.00;99.90;;;;;;5037051;28;20164;-74
2022/09/09 07:22:40;;;;;;;3.33;1.52;;;29.70;99.90;;;;;;5028753;28;20242;-73
2022/09/09 07:25:06;;;;;;;3.47;1.70;;;30.00;99.90;;;;;;5034183;28;20235;-74
2022/09/09 07:27:32;;;;;;;2.63;1.65;;;29.10;99.90;;;;;;5031653;28;20287;-74
2022/09/09 07:29:58;;;;;;;2.67;1.83;;;29.60;99.90;;;;;;5031655;28;20767;-74
2022/09/09 07:32:25;;;;;;;3.78;1.70;;;29.20;99.90;;;;;;5033418;28;20720;-73
2022/09/09 07:34:51;;;;;;;1.60;1.38;;;29.70;99.90;;;;;;5028023;28;20241;-72
2022/09/09 07:37:17;;;;;;;3.53;1.70;;;29.40;99.90;;;;;;5046410;28;20226;-73
2022/09/09 07:39:43;;;;;;;3.45;1.60;;;29.80;99.90;;;;;;5035080;28;20208;-74
2022/09/09 07:42:10;;;;;;;4.47;1.50;;;30.10;99.90;;;;;;5034810;28;20216;-75
2022/09/09 07:44:36;;;;;;;4.65;1.60;;;30.40;99.90;;;;;;5037307;28;20190;-72
2022/09/09 07:47:03;;;;;;;3.67;1.60;;;31.00;99.90;;;;;;5035733;28;20593;-71
2022/09/09 07:49:28;;;;;;;5.20;1.52;;;30.70;99.90;;;;;;5031691;28;20211;-72
2022/09/09 07:51:54;;;;;;;4.30;2.20;;;30.20;99.90;;;;;;5031399;28;20200;-72
2022/09/09 07:54:23;;;;;;;3.58;1.83;;;29.20;99.90;;;;;;5038786;28;20692;-72
2022/09/09 07:56:49;;;;;;;3.42;1.58;;;28.80;99.90;;;;;;5027685;28;20266;-72
2022/09/09 07:59:15;;;;;;;3.58;1.52;;;28.40;99.90;;;;;;5048123;28;20314;-72
2022/09/09 08:01:51;;;;;;;4.15;1.40;;;27.50;99.90;;;;;;5050472;28;20218;-72
2022/09/09 08:04:19;;;;;;;1.63;1.10;;;28.80;99.90;;;;;;5026722;28;20597;-73
2022/09/09 08:06:47;;;;;;;3.78;1.42;;;29.40;99.90;;;;;;5030683;28;20836;-72
2022/09/09 08:09:13;;;;;;;4.20;1.60;;;30.30;99.90;;;;;;5031956;28;20221;-75
2022/09/09 08:11:40;;;;;;;4.85;2.53;;;30.60;99.90;;;;;;5044862;28;20800;-73
2022/09/09 08:14:07;;;;;;;3.83;2.20;;;31.10;99.90;;;;;;5053462;28;20258;-74
2022/09/09 08:16:36;;;;;;;5.38;2.25;;;31.40;99.90;;;;;;5044613;28;20223;-73
2022/09/09 08:19:03;;;;;;;3.55;1.75;;;31.50;99.90;;;;;;5030356;28;20731;-75
2022/09/09 08:21:31;;;;;;;2.05;1.58;;;31.70;99.90;;;;;;5042466;28;20254;-73
2022/09/09 08:24:00;;;;;;;3.08;1.27;;;31.60;99.90;;;;;;5043950;28;20599;-72
2022/09/09 08:26:31;;;;;;;4.15;1.63;;;30.80;99.90;;;;;;5038746;28;20176;-72
2022/09/09 08:28:59;;;;;;;2.45;1.20;;;29.60;99.90;;;;;;5032543;28;20253;-72
2022/09/09 08:31:54;;;;;;;4.22;1.88;;;28.00;99.90;;;;;;5042507;28;20218;-75
2022/09/09 08:34:20;;;;;;;2.03;1.27;;;26.60;99.90;;;;;;5039412;28;20291;-73
2022/09/09 08:36:47;;;;;;;4.13;1.60;;;25.80;99.90;;;;;;5047623;28;20291;-73
2022/09/09 08:39:15;;;;;;;4.95;1.65;;;26.60;99.90;;;;;;5046632;28;20220;-76
2022/09/09 08:41:55;;;;;;;2.38;1.20;;;26.30;99.90;;;;;;5047524;28;20180;-74
2022/09/09 08:44:38;;;;;;;5.10;1.52;;;26.40;99.90;;;;;;5043787;28;20179;-72
2022/09/09 08:47:28;;;;;;;3.10;1.35;;;26.70;99.90;;;;;;5042969;28;20204;-73
2022/09/09 08:50:00;;;;;;;4.38;1.40;;;25.30;99.90;;;;;;5043331;28;20579;-74
2022/09/09 08:52:29;;;;;;;5.68;1.52;;;24.30;99.90;;;;;;5023679;28;20290;-75
2022/09/09 08:55:21;;;;;;;4.60;1.20;;;24.00;99.90;;;;;;5044028;28;20247;-73
2022/09/09 08:57:47;;;;;;;3.78;1.40;;;24.00;99.90;;;;;;5030514;28;20223;-74
2022/09/09 09:00:13;;;;;;;2.95;1.33;;;23.30;99.90;;;;;;5040645;28;20215;-73
2022/09/09 09:03:06;;;;;;;3.63;1.33;;;23.40;99.90;;;;;;5047670;28;20205;-74
2022/09/09 09:05:57;;;;;;;5.18;1.63;;;23.30;99.90;;;;;;5043216;28;20182;-74
2022/09/09 09:08:38;;;;;;;3.58;1.30;;;23.00;99.90;;;;;;5035985;28;20210;-75
2022/09/09 09:11:05;;;;;;;3.58;1.58;;;23.20;99.90;;;;;;5041086;28;20208;-74
2022/09/09 09:13:31;;;;;;;5.03;1.50;;;23.00;99.90;;;;;;5042706;28;20233;-76
2022/09/09 09:16:04;;;;;;;2.83;1.50;;;23.20;99.90;;;;;;5050321;28;20749;-75
2022/09/09 09:18:31;;;;;;;5.53;1.88;;;23.20;99.90;;;;;;5040903;28;20224;-78
2022/09/09 09:21:11;;;;;;;4.53;1.55;;;23.10;99.90;;;;;;5045124;28;20204;-75
2022/09/09 09:23:51;;;;;;;2.90;1.60;;;23.60;99.90;;;;;;5050257;28;20183;-75
2022/09/09 09:26:18;;;;;;;4.95;1.60;;;23.50;99.90;;;;;;5045917;28;20231;-76
2022/09/09 09:28:45;;;;;;;3.33;1.30;;;23.60;99.90;;;;;;5041014;28;20219;-78
2022/09/09 09:31:12;;;;;;;5.07;1.58;;;24.70;99.90;;;;;;5042902;28;20214;-79
2022/09/09 09:33:40;;;;;;;5.57;1.60;;;25.50;99.90;;;;;;5026699;28;20722;-79
2022/09/09 09:36:09;;;;;;;2.92;1.20;;;26.00;99.90;;;;;;5029676;28;20212;-77
2022/09/09 09:38:36;;;;;;;2.55;1.20;;;25.90;99.90;;;;;;5045396;28;20187;-80
2022/09/09 09:41:02;;;;;;;5.13;1.48;;;26.40;99.90;;;;;;5040122;28;20204;-74
2022/09/09 09:43:30;;;;;;;3.38;1.08;;;26.40;99.90;;;;;;5052588;28;20229;-75
2022/09/09 09:45:57;;;;;;;4.30;1.60;;;26.10;99.90;;;;;;5044339;28;20266;-76
2022/09/09 09:48:24;;;;;;;3.75;1.40;;;26.20;99.90;;;;;;5044945;28;20219;-76
2022/09/09 09:50:57;;;;;;;5.55;2.00;;;26.30;99.90;;;;;;5041506;28;20286;-76
2022/09/09 09:53:27;;;;;;;11.93;6.88;;;26.30;99.90;;;;;;5040877;28;20172;-71
2022/09/09 09:55:55;;;;;;;5.10;2.30;;;26.70;99.90;;;;;;5046734;28;20219;-72
2022/09/09 09:58:21;;;;;;;2.75;1.23;;;26.30;99.90;;;;;;5037877;28;20227;-73
2022/09/09 10:00:52;;;;;;;5.47;1.30;;;26.00;99.90;;;;;;5041643;28;20697;-75
2022/09/09 10:03:40;;;;;;;4.22;1.55;;;25.90;99.90;;;;;;5041460;28;20203;-76
2022/09/09 10:06:06;;;;;;;2.22;1.00;;;26.20;99.90;;;;;;5043729;28;20232;-74
2022/09/09 10:08:45;;;;;;;3.83;2.20;;;26.40;99.90;;;;;;5041353;28;20734;-75
2022/09/09 10:11:30;;;;;;;2.40;1.20;;;25.90;99.90;;;;;;5047957;28;20224;-76
2022/09/09 10:14:14;;;;;;;4.57;1.27;;;25.70;99.90;;;;;;5042228;28;20706;-75
2022/09/09 10:17:07;;;;;;;2.72;1.30;;;25.70;99.90;;;;;;5037804;28;20219;-77
2022/09/09 10:19:35;;;;;;;2.58;1.35;;;25.90;99.90;;;;;;5035945;28;20207;-77
2022/09/09 10:22:03;;;;;;;2.60;1.48;;;25.60;99.90;;;;;;5053150;23;20236;-68
2022/09/09 10:25:06;;;;;;;3.50;1.65;;;26.00;99.90;;;;;;5077199;28;20261;-67
2022/09/09 10:27:44;;;;;;;3.55;1.52;;;26.50;99.90;;;;;;5075890;28;20301;-67
2022/09/09 10:30:21;;;;;;;2.95;1.60;;;26.20;99.90;;;;;;5081321;28;20203;-68
2022/09/09 10:32:51;;;;;;;6.32;1.38;;;25.50;99.90;;;;;;5078372;28;20199;-69
2022/09/09 10:35:30;;;;;;;5.32;1.45;;;25.00;99.90;;;;;;5071413;28;20206;-69
2022/09/09 10:38:02;;;;;;;3.63;1.40;;;25.20;99.90;;;;;;5075532;28;20213;-67
2022/09/09 10:40:38;;;;;;;3.90;1.42;;;24.40;99.90;;;;;;5073037;28;20205;-68
2022/09/09 10:43:40;;;;;;;2.20;1.17;;;25.10;99.90;;;;;;5053951;28;20306;-70
2022/09/09 10:46:41;;;;;;;2.53;1.40;;;26.00;99.90;;;;;;5058194;28;20210;-70
2022/09/09 10:49:14;;;;;;;3.72;0.90;;;25.30;99.90;;;;;;5036653;28;20290;-69
2022/09/09 10:51:49;;;;;;;3.30;1.52;;;24.50;99.90;;;;;;5073601;28;20705;-69
2022/09/09 10:54:35;;;;;;;2.58;1.20;;;24.90;99.90;;;;;;5072321;28;20271;-69
2022/09/09 10:57:21;;;;;;;5.00;1.40;;;25.40;99.90;;;;;;5026536;28;20220;-69
2022/09/09 10:59:52;;;;;;;2.03;0.82;;;25.40;99.90;;;;;;5074151;28;20277;-69
2022/09/09 11:02:28;;;;;;;4.45;1.33;;;25.40;99.90;;;;;;5055723;28;20178;-69
2022/09/09 11:05:01;;;;;;;4.80;1.40;;;24.90;99.90;;;;;;5061904;28;20206;-70
2022/09/09 11:07:43;;;;;;;2.35;1.38;;;24.70;99.90;;;;;;5060536;28;20230;-69
2022/09/09 11:10:41;;;;;;;2.35;1.23;;;24.70;99.90;;;;;;5075497;28;20247;-68
2022/09/09 11:13:22;;;;;;;5.15;1.67;;;25.00;99.90;;;;;;5076432;28;20244;-69
2022/09/09 11:15:57;;;;;;;8.60;2.00;;;24.90;99.90;;;;;;5065424;28;20351;-69
2022/09/09 11:18:23;;;;;;;4.20;1.38;;;24.60;99.90;;;;;;5072220;28;20229;-72
2022/09/09 11:20:55;;;;;;;2.28;1.50;;;24.00;99.90;;;;;;5078313;28;20649;-67
2022/09/09 11:23:27;;;;;;;6.47;1.75;;;23.90;99.90;;;;;;5047991;28;20217;-69
2022/09/09 11:26:03;;;;;;;8.05;2.63;;;24.20;99.90;;;;;;5070901;28;20253;-69
2022/09/09 11:28:44;;;;;;;6.15;1.75;;;24.20;99.90;;;;;;5075869;28;20213;-71
2022/09/09 11:31:21;;;;;;;3.90;1.20;;;24.60;99.90;;;;;;5071722;28;20736;-73
2022/09/09 11:34:11;;;;;;;3.60;1.17;;;24.50;99.90;;;;;;5058200;28;20820;-70
2022/09/09 11:36:40;;;;;;;4.25;1.20;;;24.30;99.90;;;;;;5074980;28;20211;-70
2022/09/09 11:39:41;;;;;;;2.05;1.63;;;24.20;99.90;;;;;;5061018;28;20206;-71
2022/09/09 11:42:14;;;;;;;3.28;0.85;;;24.10;99.90;;;;;;5074885;28;20336;-70
2022/09/09 11:44:41;;;;;;;3.25;1.17;;;24.10;99.90;;;;;;5081017;28;20659;-70
2022/09/09 11:47:19;;;;;;;3.60;1.20;;;24.60;99.90;;;;;;5059571;28;20174;-71
2022/09/09 11:49:45;;;;;;;3.08;1.08;;;24.80;99.90;;;;;;5081545;28;20265;-70
2022/09/09 11:52:22;;;;;;;2.67;1.10;;;24.70;99.90;;;;;;5064334;28;20230;-70
2022/09/09 11:54:50;;;;;;;2.92;1.30;;;24.70;99.90;;;;;;5055534;28;20217;-71
2022/09/09 11:57:36;;;;;;;4.28;0.80;;;24.90;99.90;;;;;;5077828;28;20210;-69
2022/09/09 12:00:03;;;;;;;3.20;1.40;;;25.10;99.90;;;;;;5070372;28;20207;-70
2022/09/09 12:02:31;;;;;;;2.72;0.88;;;24.90;99.90;;;;;;5069251;28;20194;-70
2022/09/09 12:05:08;;;;;;;4.15;1.27;;;25.20;99.90;;;;;;5074606;28;20202;-69
2022/09/09 12:07:58;;;;;;;1.05;0.90;;;24.90;99.90;;;;;;5065878;28;20226;-69
2022/09/09 12:10:27;;;;;;;2.22;0.80;;;24.10;99.90;;;;;;5074441;28;20210;-70
2022/09/09 12:12:52;;;;;;;3.97;1.05;;;23.70;99.90;;;;;;5077657;28;20221;-70
2022/09/09 12:15:20;;;;;;;3.65;2.10;;;24.30;99.90;;;;;;5078998;28;20215;-70
2022/09/09 12:17:50;;;;;;;3.13;1.52;;;24.30;99.90;;;;;;5051033;28;20669;-69
2022/09/09 12:20:34;;;;;;;3.72;1.40;;;24.40;99.90;;;;;;5075777;28;20183;-69
2022/09/09 12:23:16;;;;;;;2.10;0.90;;;24.70;99.90;;;;;;5082770;28;20226;-70
2022/09/09 12:26:06;;;;;;;1.98;1.05;;;24.30;99.90;;;;;;5074890;28;20206;-70
2022/09/09 12:28:53;;;;;;;3.60;1.13;;;24.00;99.90;;;;;;5083539;28;20210;-70
2022/09/09 12:31:37;;;;;;;2.67;0.90;;;24.10;99.90;;;;;;5053589;28;20225;-70
2022/09/09 12:34:18;;;;;;;2.15;0.95;;;23.90;99.90;;;;;;5073322;28;20716;-71
2022/09/09 12:36:48;;;;;;;4.07;1.00;;;23.70;99.90;;;;;;5071129;28;20214;-71
2022/09/09 12:39:38;;;;;;;2.80;1.42;;;23.60;99.90;;;;;;5076130;28;20207;-70
2022/09/09 12:42:04;;;;;;;2.15;0.98;;;23.80;99.90;;;;;;5057572;28;20330;-70
2022/09/09 12:44:30;;;;;;;2.70;1.30;;;23.90;99.90;;;;;;5066660;28;20176;-70
2022/09/09 12:47:00;;;;;;;3.15;1.25;;;23.70;99.90;;;;;;5056297;28;20213;-70
2022/09/09 12:49:34;;;;;;;2.85;0.93;;;23.70;99.90;;;;;;5068525;28;20199;-70
2022/09/09 12:52:06;;;;;;;2.42;0.93;;;23.80;99.90;;;;;;5065800;28;20202;-70
2022/09/09 12:54:34;;;;;;;2.47;1.00;;;23.80;99.90;;;;;;5071424;28;20211;-70
2022/09/09 12:57:00;;;;;;;3.97;0.90;;;23.90;99.90;;;;;;5067705;28;20207;-70
2022/09/09 12:59:36;;;;;;;1.80;0.88;;;24.00;99.90;;;;;;5039393;28;20171;-70
2022/09/09 13:02:01;;;;;;;2.53;1.20;;;23.90;99.90;;;;;;5068319;28;20285;-70
2022/09/09 13:04:27;;;;;;;2.72;1.27;;;24.00;99.90;;;;;;5068930;28;20298;-71
2022/09/09 13:06:53;;;;;;;2.63;1.25;;;24.20;99.90;;;;;;5068710;28;20199;-70
2022/09/09 13:09:19;;;;;;;5.18;1.58;;;24.30;99.90;;;;;;5065519;28;20209;-70
2022/09/09 13:11:56;;;;;;;1.73;1.05;;;24.50;99.90;;;;;;5069455;28;20192;-70